sensor_id;sensor_type;location;lat;lon;timestamp;temperature;humidity
18839;DHT22;9548;56.920;14.804;2022-08-01T00:00:31;12.90;99.90
18839;DHT22;9548;56.920;14.804;2022-08-01T00:02:58;12.80;99.90
18839;DHT22;9548;56.920;14.804;2022-08-01T00:05:25;12.90;99.90
18839;DHT22;9548;56.920;14.804;2022-08-01T00:07:54;12.80;99.90
18839;DHT22;9548;56.920;14.804;2022-08-01T00:10:21;12.80;99.90
18839;DHT22;9548;56.920;14.804;2022-08-01T00:12:47;12.80;99.90
18839;DHT22;9548;56.920;14.804;2022-08-01T00:15:16;12.80;99.90
18839;DHT22;9548;56.920;14.804;2022-08-01T00:17:43;12.80;99.90
18839;DHT22;9548;56.920;14.804;2022-08-01T00:20:12;12.90;99.90
18839;DHT22;9548;56.920;14.804;2022-08-01T00:22:39;12.90;99.90
18839;DHT22;9548;56.920;14.804;2022-08-01T00:25:08;12.90;99.90
18839;DHT22;9548;56.920;14.804;2022-08-01T00:27:35;12.90;99.90
18839;DHT22;9548;56.920;14.804;2022-08-01T00:30:03;12.80;99.90
18839;DHT22;9548;56.920;14.804;2022-08-01T00:32:30;12.90;99.90
18839;DHT22;9548;56.920;14.804;2022-08-01T00:34:57;12.90;99.90
18839;DHT22;9548;56.920;14.804;2022-08-01T00:37:24;12.80;99.90
18839;DHT22;9548;56.920;14.804;2022-08-01T00:39:51;12.80;99.90
18839;DHT22;9548;56.920;14.804;2022-08-01T00:42:20;12.80;99.90
18839;DHT22;9548;56.920;14.804;2022-08-01T00:44:47;12.80;99.90
18839;DHT22;9548;56.920;14.804;2022-08-01T00:47:14;12.90;99.90
18839;DHT22;9548;56.920;14.804;2022-08-01T00:49:42;12.80;99.90
18839;DHT22;9548;56.920;14.804;2022-08-01T00:52:09;12.90;99.90
18839;DHT22;9548;56.920;14.804;2022-08-01T00:54:37;12.90;99.90
18839;DHT22;9548;56.920;14.804;2022-08-01T00:57:04;12.80;99.90
18839;DHT22;9548;56.920;14.804;2022-08-01T00:59:34;12.80;99.90
18839;DHT22;9548;56.920;14.804;2022-08-01T01:02:01;12.80;99.90
18839;DHT22;9548;56.920;14.804;2022-08-01T01:04:28;12.80;99.90
18839;DHT22;9548;56.920;14.804;2022-08-01T01:06:59;12.80;99.90
18839;DHT22;9548;56.920;14.804;2022-08-01T01:09:36;12.80;99.90
18839;DHT22;9548;56.920;14.804;2022-08-01T01:12:13;12.80;99.90
18839;DHT22;9548;56.920;14.804;2022-08-01T01:14:46;12.80;99.90
18839;DHT22;9548;56.920;14.804;2022-08-01T01:17:20;12.80;99.90
18839;DHT22;9548;56.920;14.804;2022-08-01T01:19:51;12.80;99.90
18839;DHT22;9548;56.920;14.804;2022-08-01T01:22:27;12.80;99.90
18839;DHT22;9548;56.920;14.804;2022-08-01T01:25:09;12.80;99.90
18839;DHT22;9548;56.920;14.804;2022-08-01T01:27:45;12.90;99.90
18839;DHT22;9548;56.920;14.804;2022-08-01T01:30:16;12.90;99.90
18839;DHT22;9548;56.920;14.804;2022-08-01T01:32:46;12.90;99.90
18839;DHT22;9548;56.920;14.804;2022-08-01T01:35:20;12.90;99.90
18839;DHT22;9548;56.920;14.804;2022-08-01T01:37:49;12.90;99.90
18839;DHT22;9548;56.920;14.804;2022-08-01T01:40:18;12.90;99.90
18839;DHT22;9548;56.920;14.804;2022-08-01T01:42:46;12.90;99.90
18839;DHT22;9548;56.920;14.804;2022-08-01T01:45:16;13.00;99.90
18839;DHT22;9548;56.920;14.804;2022-08-01T01:47:45;13.00;99.90
18839;DHT22;9548;56.920;14.804;2022-08-01T01:50:13;13.00;99.90
18839;DHT22;9548;56.920;14.804;2022-08-01T01:52:42;13.00;99.90
18839;DHT22;9548;56.920;14.804;2022-08-01T01:55:11;13.00;99.90
18839;DHT22;9548;56.920;14.804;2022-08-01T01:57:41;13.10;99.90
18839;DHT22;9548;56.920;14.804;2022-08-01T02:00:10;13.10;99.90
18839;DHT22;9548;56.920;14.804;2022-08-01T02:02:40;13.10;99.90
18839;DHT22;9548;56.920;14.804;2022-08-01T02:05:10;13.10;99.90
18839;DHT22;9548;56.920;14.804;2022-08-01T02:07:39;13.10;99.90
18839;DHT22;9548;56.920;14.804;2022-08-01T02:10:08;13.10;99.90
18839;DHT22;9548;56.920;14.804;2022-08-01T02:12:39;13.10;99.90
18839;DHT22;9548;56.920;14.804;2022-08-01T02:15:09;13.10;99.90
18839;DHT22;9548;56.920;14.804;2022-08-01T02:17:40;13.20;99.90
18839;DHT22;9548;56.920;14.804;2022-08-01T02:20:09;13.20;99.90
18839;DHT22;9548;56.920;14.804;2022-08-01T02:22:40;13.20;99.90
18839;DHT22;9548;56.920;14.804;2022-08-01T02:25:11;13.20;99.90
18839;DHT22;9548;56.920;14.804;2022-08-01T02:27:48;13.20;99.90
18839;DHT22;9548;56.920;14.804;2022-08-01T02:30:17;13.20;99.90
18839;DHT22;9548;56.920;14.804;2022-08-01T02:32:47;13.20;99.90
18839;DHT22;9548;56.920;14.804;2022-08-01T02:35:20;13.20;99.90
18839;DHT22;9548;56.920;14.804;2022-08-01T02:37:49;13.20;99.90
18839;DHT22;9548;56.920;14.804;2022-08-01T02:40:17;13.20;99.90
18839;DHT22;9548;56.920;14.804;2022-08-01T02:42:49;13.20;99.90
18839;DHT22;9548;56.920;14.804;2022-08-01T02:45:18;13.20;99.90
18839;DHT22;9548;56.920;14.804;2022-08-01T02:47:48;13.20;99.90
18839;DHT22;9548;56.920;14.804;2022-08-01T02:50:17;13.20;99.90
18839;DHT22;9548;56.920;14.804;2022-08-01T02:52:48;13.20;99.90
18839;DHT22;9548;56.920;14.804;2022-08-01T02:55:17;13.10;99.90
18839;DHT22;9548;56.920;14.804;2022-08-01T02:57:46;13.10;99.90
18839;DHT22;9548;56.920;14.804;2022-08-01T03:00:15;13.10;99.90
18839;DHT22;9548;56.920;14.804;2022-08-01T03:02:43;13.10;99.90
18839;DHT22;9548;56.920;14.804;2022-08-01T03:05:13;13.10;99.90
18839;DHT22;9548;56.920;14.804;2022-08-01T03:07:41;13.10;99.90
18839;DHT22;9548;56.920;14.804;2022-08-01T03:10:10;13.20;99.90
18839;DHT22;9548;56.920;14.804;2022-08-01T03:12:39;13.20;99.90
18839;DHT22;9548;56.920;14.804;2022-08-01T03:15:09;13.20;99.90
18839;DHT22;9548;56.920;14.804;2022-08-01T03:17:37;13.20;99.90
18839;DHT22;9548;56.920;14.804;2022-08-01T03:20:06;13.20;99.90
18839;DHT22;9548;56.920;14.804;2022-08-01T03:22:38;13.20;99.90
18839;DHT22;9548;56.920;14.804;2022-08-01T03:25:06;13.20;99.90
18839;DHT22;9548;56.920;14.804;2022-08-01T03:27:36;13.20;99.90
18839;DHT22;9548;56.920;14.804;2022-08-01T03:30:05;13.20;99.90
18839;DHT22;9548;56.920;14.804;2022-08-01T03:32:32;13.20;99.90
18839;DHT22;9548;56.920;14.804;2022-08-01T03:35:00;13.20;99.90
18839;DHT22;9548;56.920;14.804;2022-08-01T03:37:29;13.30;99.90
18839;DHT22;9548;56.920;14.804;2022-08-01T03:40:04;13.20;99.90
18839;DHT22;9548;56.920;14.804;2022-08-01T03:42:35;13.20;99.90
18839;DHT22;9548;56.920;14.804;2022-08-01T03:45:06;13.20;99.90
18839;DHT22;9548;56.920;14.804;2022-08-01T03:47:35;13.20;99.90
18839;DHT22;9548;56.920;14.804;2022-08-01T03:50:04;13.20;99.90
18839;DHT22;9548;56.920;14.804;2022-08-01T03:52:34;13.30;99.90
18839;DHT22;9548;56.920;14.804;2022-08-01T03:55:07;13.30;99.90
18839;DHT22;9548;56.920;14.804;2022-08-01T03:57:34;13.30;99.90
18839;DHT22;9548;56.920;14.804;2022-08-01T04:00:03;13.40;99.90
18839;DHT22;9548;56.920;14.804;2022-08-01T04:02:32;13.40;99.90
18839;DHT22;9548;56.920;14.804;2022-08-01T04:04:59;13.50;99.90
18839;DHT22;9548;56.920;14.804;2022-08-01T04:07:28;13.60;99.90
18839;DHT22;9548;56.920;14.804;2022-08-01T04:09:56;13.60;99.90
18839;DHT22;9548;56.920;14.804;2022-08-01T04:12:24;13.70;99.90
18839;DHT22;9548;56.920;14.804;2022-08-01T04:14:51;13.70;99.90
18839;DHT22;9548;56.920;14.804;2022-08-01T04:17:19;13.80;99.90
18839;DHT22;9548;56.920;14.804;2022-08-01T04:19:46;13.80;99.90
18839;DHT22;9548;56.920;14.804;2022-08-01T04:22:14;13.90;99.90
18839;DHT22;9548;56.920;14.804;2022-08-01T04:24:44;14.00;99.90
18839;DHT22;9548;56.920;14.804;2022-08-01T04:27:19;14.10;99.90
18839;DHT22;9548;56.920;14.804;2022-08-01T04:29:51;14.10;99.90
18839;DHT22;9548;56.920;14.804;2022-08-01T04:32:21;14.20;99.90
18839;DHT22;9548;56.920;14.804;2022-08-01T04:34:49;14.20;99.90
18839;DHT22;9548;56.920;14.804;2022-08-01T04:37:18;14.20;99.90
18839;DHT22;9548;56.920;14.804;2022-08-01T04:39:46;14.30;99.90
18839;DHT22;9548;56.920;14.804;2022-08-01T04:42:13;14.30;99.90
18839;DHT22;9548;56.920;14.804;2022-08-01T04:44:41;14.30;99.90
18839;DHT22;9548;56.920;14.804;2022-08-01T04:47:10;14.30;99.90
18839;DHT22;9548;56.920;14.804;2022-08-01T04:49:38;14.30;99.90
18839;DHT22;9548;56.920;14.804;2022-08-01T04:52:06;14.30;99.90
18839;DHT22;9548;56.920;14.804;2022-08-01T04:54:35;14.30;99.90
18839;DHT22;9548;56.920;14.804;2022-08-01T04:57:04;14.30;99.90
18839;DHT22;9548;56.920;14.804;2022-08-01T04:59:33;14.40;99.90
18839;DHT22;9548;56.920;14.804;2022-08-01T05:02:11;14.50;99.90
18839;DHT22;9548;56.920;14.804;2022-08-01T05:04:38;14.60;99.90
18839;DHT22;9548;56.920;14.804;2022-08-01T05:07:06;14.60;99.90
18839;DHT22;9548;56.920;14.804;2022-08-01T05:09:34;14.70;99.90
18839;DHT22;9548;56.920;14.804;2022-08-01T05:12:02;14.80;99.90
18839;DHT22;9548;56.920;14.804;2022-08-01T05:14:30;14.90;99.90
18839;DHT22;9548;56.920;14.804;2022-08-01T05:16:58;15.00;99.90
18839;DHT22;9548;56.920;14.804;2022-08-01T05:19:26;15.10;99.90
18839;DHT22;9548;56.920;14.804;2022-08-01T05:21:53;15.20;99.90
18839;DHT22;9548;56.920;14.804;2022-08-01T05:24:20;15.30;99.90
18839;DHT22;9548;56.920;14.804;2022-08-01T05:26:48;15.40;99.90
18839;DHT22;9548;56.920;14.804;2022-08-01T05:29:15;15.50;99.90
18839;DHT22;9548;56.920;14.804;2022-08-01T05:31:42;15.60;99.90
18839;DHT22;9548;56.920;14.804;2022-08-01T05:34:09;15.60;99.90
18839;DHT22;9548;56.920;14.804;2022-08-01T05:36:38;15.70;99.90
18839;DHT22;9548;56.920;14.804;2022-08-01T05:39:05;15.80;99.90
18839;DHT22;9548;56.920;14.804;2022-08-01T05:41:32;15.90;99.90
18839;DHT22;9548;56.920;14.804;2022-08-01T05:43:59;16.00;99.90
18839;DHT22;9548;56.920;14.804;2022-08-01T05:46:26;16.00;99.90
18839;DHT22;9548;56.920;14.804;2022-08-01T05:48:53;16.00;99.90
18839;DHT22;9548;56.920;14.804;2022-08-01T05:51:20;16.10;99.90
18839;DHT22;9548;56.920;14.804;2022-08-01T05:53:48;16.10;99.90
18839;DHT22;9548;56.920;14.804;2022-08-01T05:56:15;16.20;99.90
18839;DHT22;9548;56.920;14.804;2022-08-01T05:58:43;16.40;99.90
18839;DHT22;9548;56.920;14.804;2022-08-01T06:01:10;16.50;99.90
18839;DHT22;9548;56.920;14.804;2022-08-01T06:03:37;16.70;99.90
18839;DHT22;9548;56.920;14.804;2022-08-01T06:06:04;16.80;99.90
18839;DHT22;9548;56.920;14.804;2022-08-01T06:08:32;16.90;99.90
18839;DHT22;9548;56.920;14.804;2022-08-01T06:11:00;16.90;99.90
18839;DHT22;9548;56.920;14.804;2022-08-01T06:13:27;17.10;99.90
18839;DHT22;9548;56.920;14.804;2022-08-01T06:15:54;17.30;99.90
18839;DHT22;9548;56.920;14.804;2022-08-01T06:18:21;17.50;99.90
18839;DHT22;9548;56.920;14.804;2022-08-01T06:20:48;17.50;99.90
18839;DHT22;9548;56.920;14.804;2022-08-01T06:23:15;17.50;99.90
18839;DHT22;9548;56.920;14.804;2022-08-01T06:25:43;17.60;99.90
18839;DHT22;9548;56.920;14.804;2022-08-01T06:28:11;17.70;99.90
18839;DHT22;9548;56.920;14.804;2022-08-01T06:30:38;17.80;99.90
18839;DHT22;9548;56.920;14.804;2022-08-01T06:33:05;17.90;99.90
18839;DHT22;9548;56.920;14.804;2022-08-01T06:35:32;17.90;99.90
18839;DHT22;9548;56.920;14.804;2022-08-01T06:37:59;17.80;99.90
18839;DHT22;9548;56.920;14.804;2022-08-01T06:40:26;17.60;99.90
18839;DHT22;9548;56.920;14.804;2022-08-01T06:42:53;17.70;99.90
18839;DHT22;9548;56.920;14.804;2022-08-01T06:45:21;17.80;99.90
18839;DHT22;9548;56.920;14.804;2022-08-01T06:47:50;17.90;99.90
18839;DHT22;9548;56.920;14.804;2022-08-01T06:50:19;18.20;99.90
18839;DHT22;9548;56.920;14.804;2022-08-01T06:52:46;18.30;99.90
18839;DHT22;9548;56.920;14.804;2022-08-01T06:55:13;18.40;99.90
18839;DHT22;9548;56.920;14.804;2022-08-01T06:57:46;18.50;99.90
18839;DHT22;9548;56.920;14.804;2022-08-01T07:00:14;18.60;99.90
18839;DHT22;9548;56.920;14.804;2022-08-01T07:02:45;18.80;99.90
18839;DHT22;9548;56.920;14.804;2022-08-01T07:05:12;19.00;99.90
18839;DHT22;9548;56.920;14.804;2022-08-01T07:07:39;19.10;99.90
18839;DHT22;9548;56.920;14.804;2022-08-01T07:10:07;19.10;99.90
18839;DHT22;9548;56.920;14.804;2022-08-01T07:12:35;19.20;99.90
18839;DHT22;9548;56.920;14.804;2022-08-01T07:15:04;19.30;99.90
18839;DHT22;9548;56.920;14.804;2022-08-01T07:17:31;19.40;99.90
18839;DHT22;9548;56.920;14.804;2022-08-01T07:19:59;19.40;99.90
18839;DHT22;9548;56.920;14.804;2022-08-01T07:22:27;19.30;99.90
18839;DHT22;9548;56.920;14.804;2022-08-01T07:24:54;19.20;99.90
18839;DHT22;9548;56.920;14.804;2022-08-01T07:27:21;19.10;99.90
18839;DHT22;9548;56.920;14.804;2022-08-01T07:29:48;19.00;99.90
18839;DHT22;9548;56.920;14.804;2022-08-01T07:32:15;19.00;99.90
18839;DHT22;9548;56.920;14.804;2022-08-01T07:34:42;18.90;99.90
18839;DHT22;9548;56.920;14.804;2022-08-01T07:37:11;18.80;99.90
18839;DHT22;9548;56.920;14.804;2022-08-01T07:39:38;18.80;99.90
18839;DHT22;9548;56.920;14.804;2022-08-01T07:42:05;18.90;99.90
18839;DHT22;9548;56.920;14.804;2022-08-01T07:44:32;18.90;99.90
18839;DHT22;9548;56.920;14.804;2022-08-01T07:46:59;19.00;99.90
18839;DHT22;9548;56.920;14.804;2022-08-01T07:49:26;19.00;99.90
18839;DHT22;9548;56.920;14.804;2022-08-01T07:51:53;19.10;99.90
18839;DHT22;9548;56.920;14.804;2022-08-01T07:54:22;19.00;99.90
18839;DHT22;9548;56.920;14.804;2022-08-01T07:56:49;19.10;99.90
18839;DHT22;9548;56.920;14.804;2022-08-01T07:59:16;19.30;99.90
18839;DHT22;9548;56.920;14.804;2022-08-01T08:01:48;19.40;99.90
18839;DHT22;9548;56.920;14.804;2022-08-01T08:04:15;19.40;99.90
18839;DHT22;9548;56.920;14.804;2022-08-01T08:06:42;19.60;99.90
18839;DHT22;9548;56.920;14.804;2022-08-01T08:09:10;19.80;99.90
18839;DHT22;9548;56.920;14.804;2022-08-01T08:11:39;19.90;99.90
18839;DHT22;9548;56.920;14.804;2022-08-01T08:14:05;20.00;99.90
18839;DHT22;9548;56.920;14.804;2022-08-01T08:16:32;20.20;99.90
18839;DHT22;9548;56.920;14.804;2022-08-01T08:18:59;20.40;99.90
18839;DHT22;9548;56.920;14.804;2022-08-01T08:21:26;20.50;99.90
18839;DHT22;9548;56.920;14.804;2022-08-01T08:23:54;20.60;99.90
18839;DHT22;9548;56.920;14.804;2022-08-01T08:26:40;20.70;99.90
18839;DHT22;9548;56.920;14.804;2022-08-01T08:29:07;20.80;99.90
18839;DHT22;9548;56.920;14.804;2022-08-01T08:31:34;21.00;99.90
18839;DHT22;9548;56.920;14.804;2022-08-01T08:34:01;21.30;99.90
18839;DHT22;9548;56.920;14.804;2022-08-01T08:36:28;21.40;99.90
18839;DHT22;9548;56.920;14.804;2022-08-01T08:38:55;21.50;99.90
18839;DHT22;9548;56.920;14.804;2022-08-01T08:41:22;21.80;99.90
18839;DHT22;9548;56.920;14.804;2022-08-01T08:43:51;21.80;99.90
18839;DHT22;9548;56.920;14.804;2022-08-01T08:46:19;21.80;99.90
18839;DHT22;9548;56.920;14.804;2022-08-01T08:48:47;21.80;99.90
18839;DHT22;9548;56.920;14.804;2022-08-01T08:51:16;22.20;99.90
18839;DHT22;9548;56.920;14.804;2022-08-01T08:53:46;22.60;99.90
18839;DHT22;9548;56.920;14.804;2022-08-01T08:56:14;22.70;99.90
18839;DHT22;9548;56.920;14.804;2022-08-01T08:58:44;22.60;99.90
18839;DHT22;9548;56.920;14.804;2022-08-01T09:01:13;22.60;99.90
18839;DHT22;9548;56.920;14.804;2022-08-01T09:03:42;22.60;99.90
18839;DHT22;9548;56.920;14.804;2022-08-01T09:06:09;22.80;99.90
18839;DHT22;9548;56.920;14.804;2022-08-01T09:08:36;23.00;99.90
18839;DHT22;9548;56.920;14.804;2022-08-01T09:11:03;23.60;99.90
18839;DHT22;9548;56.920;14.804;2022-08-01T09:13:30;23.60;99.90
18839;DHT22;9548;56.920;14.804;2022-08-01T09:15:57;23.70;99.90
18839;DHT22;9548;56.920;14.804;2022-08-01T09:18:31;23.80;99.90
18839;DHT22;9548;56.920;14.804;2022-08-01T09:21:14;23.90;99.90
18839;DHT22;9548;56.920;14.804;2022-08-01T09:23:44;23.80;99.90
18839;DHT22;9548;56.920;14.804;2022-08-01T09:26:13;23.70;99.90
18839;DHT22;9548;56.920;14.804;2022-08-01T09:28:41;23.60;99.90
18839;DHT22;9548;56.920;14.804;2022-08-01T09:31:10;23.60;99.90
18839;DHT22;9548;56.920;14.804;2022-08-01T09:33:55;23.70;99.90
18839;DHT22;9548;56.920;14.804;2022-08-01T09:36:24;23.90;99.90
18839;DHT22;9548;56.920;14.804;2022-08-01T09:38:53;23.90;99.90
18839;DHT22;9548;56.920;14.804;2022-08-01T09:41:29;23.70;99.90
18839;DHT22;9548;56.920;14.804;2022-08-01T09:43:56;23.80;99.90
18839;DHT22;9548;56.920;14.804;2022-08-01T09:46:24;23.90;99.90
18839;DHT22;9548;56.920;14.804;2022-08-01T09:48:57;24.50;99.90
18839;DHT22;9548;56.920;14.804;2022-08-01T09:51:29;24.40;99.90
18839;DHT22;9548;56.920;14.804;2022-08-01T09:53:56;24.20;99.90
18839;DHT22;9548;56.920;14.804;2022-08-01T09:56:23;24.20;99.90
18839;DHT22;9548;56.920;14.804;2022-08-01T09:58:54;24.60;99.90
18839;DHT22;9548;56.920;14.804;2022-08-01T10:01:23;24.90;99.90
18839;DHT22;9548;56.920;14.804;2022-08-01T10:04:07;24.90;99.90
18839;DHT22;9548;56.920;14.804;2022-08-01T10:06:34;25.20;99.90
18839;DHT22;9548;56.920;14.804;2022-08-01T10:09:02;25.70;99.90
18839;DHT22;9548;56.920;14.804;2022-08-01T10:11:29;25.70;99.90
18839;DHT22;9548;56.920;14.804;2022-08-01T10:13:59;25.60;99.90
18839;DHT22;9548;56.920;14.804;2022-08-01T10:16:27;25.90;99.90
18839;DHT22;9548;56.920;14.804;2022-08-01T10:18:55;25.70;99.90
18839;DHT22;9548;56.920;14.804;2022-08-01T10:21:27;26.50;99.60
18839;DHT22;9548;56.920;14.804;2022-08-01T10:23:54;27.40;98.20
18839;DHT22;9548;56.920;14.804;2022-08-01T10:26:26;28.30;96.70
18839;DHT22;9548;56.920;14.804;2022-08-01T10:28:53;29.10;95.70
18839;DHT22;9548;56.920;14.804;2022-08-01T10:31:21;29.20;94.40
18839;DHT22;9548;56.920;14.804;2022-08-01T10:33:49;28.80;94.90
18839;DHT22;9548;56.920;14.804;2022-08-01T10:36:18;28.60;94.60
18839;DHT22;9548;56.920;14.804;2022-08-01T10:38:47;28.20;95.50
18839;DHT22;9548;56.920;14.804;2022-08-01T10:41:14;28.20;95.20
18839;DHT22;9548;56.920;14.804;2022-08-01T10:43:42;27.90;95.60
18839;DHT22;9548;56.920;14.804;2022-08-01T10:46:09;27.70;95.60
18839;DHT22;9548;56.920;14.804;2022-08-01T10:48:43;27.40;96.20
18839;DHT22;9548;56.920;14.804;2022-08-01T10:51:12;28.20;95.00
18839;DHT22;9548;56.920;14.804;2022-08-01T10:53:48;29.70;93.30
18839;DHT22;9548;56.920;14.804;2022-08-01T10:56:16;29.90;92.70
18839;DHT22;9548;56.920;14.804;2022-08-01T10:58:45;29.20;92.80
18839;DHT22;9548;56.920;14.804;2022-08-01T11:01:23;29.10;93.80
18839;DHT22;9548;56.920;14.804;2022-08-01T11:04:02;28.80;94.10
18839;DHT22;9548;56.920;14.804;2022-08-01T11:06:39;29.40;93.50
18839;DHT22;9548;56.920;14.804;2022-08-01T11:09:29;29.60;92.40
18839;DHT22;9548;56.920;14.804;2022-08-01T11:12:01;29.50;92.30
18839;DHT22;9548;56.920;14.804;2022-08-01T11:14:31;29.60;92.10
18839;DHT22;9548;56.920;14.804;2022-08-01T11:17:31;29.50;92.30
18839;DHT22;9548;56.920;14.804;2022-08-01T11:20:07;29.30;92.30
18839;DHT22;9548;56.920;14.804;2022-08-01T11:26:09;29.30;91.60
18839;DHT22;9548;56.920;14.804;2022-08-01T11:28:37;28.40;92.60
18839;DHT22;9548;56.920;14.804;2022-08-01T11:31:30;27.90;92.80
18839;DHT22;9548;56.920;14.804;2022-08-01T11:33:58;27.20;93.90
18839;DHT22;9548;56.920;14.804;2022-08-01T11:36:26;26.70;95.20
18839;DHT22;9548;56.920;14.804;2022-08-01T11:39:14;26.00;96.20
18839;DHT22;9548;56.920;14.804;2022-08-01T11:41:44;25.70;96.30
18839;DHT22;9548;56.920;14.804;2022-08-01T11:44:16;25.50;96.70
18839;DHT22;9548;56.920;14.804;2022-08-01T11:46:52;25.30;97.20
18839;DHT22;9548;56.920;14.804;2022-08-01T11:49:31;25.20;97.60
18839;DHT22;9548;56.920;14.804;2022-08-01T11:52:05;25.20;97.70
18839;DHT22;9548;56.920;14.804;2022-08-01T11:54:34;25.50;97.70
18839;DHT22;9548;56.920;14.804;2022-08-01T11:57:05;25.70;97.30
18839;DHT22;9548;56.920;14.804;2022-08-01T11:59:37;25.70;97.00
18839;DHT22;9548;56.920;14.804;2022-08-01T12:02:15;25.70;97.40
18839;DHT22;9548;56.920;14.804;2022-08-01T12:04:54;25.40;98.20
18839;DHT22;9548;56.920;14.804;2022-08-01T12:07:22;25.50;97.70
18839;DHT22;9548;56.920;14.804;2022-08-01T12:09:58;25.90;97.80
18839;DHT22;9548;56.920;14.804;2022-08-01T12:12:28;27.20;96.40
18839;DHT22;9548;56.920;14.804;2022-08-01T12:14:58;28.10;94.80
18839;DHT22;9548;56.920;14.804;2022-08-01T12:17:32;28.70;94.20
18839;DHT22;9548;56.920;14.804;2022-08-01T12:20:00;29.10;93.70
18839;DHT22;9548;56.920;14.804;2022-08-01T12:22:27;29.20;93.30
18839;DHT22;9548;56.920;14.804;2022-08-01T12:24:54;29.00;93.40
18839;DHT22;9548;56.920;14.804;2022-08-01T12:27:28;28.40;94.00
18839;DHT22;9548;56.920;14.804;2022-08-01T12:29:56;27.40;95.20
18839;DHT22;9548;56.920;14.804;2022-08-01T12:32:26;26.40;96.50
18839;DHT22;9548;56.920;14.804;2022-08-01T12:34:55;25.90;97.40
18839;DHT22;9548;56.920;14.804;2022-08-01T12:37:23;25.70;97.80
18839;DHT22;9548;56.920;14.804;2022-08-01T12:39:50;25.30;98.90
18839;DHT22;9548;56.920;14.804;2022-08-01T12:42:17;25.00;99.80
18839;DHT22;9548;56.920;14.804;2022-08-01T12:44:48;24.80;99.90
18839;DHT22;9548;56.920;14.804;2022-08-01T12:47:18;24.60;99.90
18839;DHT22;9548;56.920;14.804;2022-08-01T12:49:47;24.30;99.90
18839;DHT22;9548;56.920;14.804;2022-08-01T12:52:14;24.10;99.90
18839;DHT22;9548;56.920;14.804;2022-08-01T12:55:05;23.90;99.90
18839;DHT22;9548;56.920;14.804;2022-08-01T12:57:34;23.70;99.90
18839;DHT22;9548;56.920;14.804;2022-08-01T13:00:14;23.70;99.90
18839;DHT22;9548;56.920;14.804;2022-08-01T13:02:43;24.20;99.90
18839;DHT22;9548;56.920;14.804;2022-08-01T13:05:11;24.90;99.90
18839;DHT22;9548;56.920;14.804;2022-08-01T13:07:44;25.40;99.90
18839;DHT22;9548;56.920;14.804;2022-08-01T13:10:12;25.90;99.90
18839;DHT22;9548;56.920;14.804;2022-08-01T13:12:40;25.80;99.90
18839;DHT22;9548;56.920;14.804;2022-08-01T13:15:24;25.30;99.90
18839;DHT22;9548;56.920;14.804;2022-08-01T13:17:52;24.60;99.90
18839;DHT22;9548;56.920;14.804;2022-08-01T13:20:25;24.20;99.90
18839;DHT22;9548;56.920;14.804;2022-08-01T13:22:52;23.90;99.90
18839;DHT22;9548;56.920;14.804;2022-08-01T13:25:19;23.50;99.90
18839;DHT22;9548;56.920;14.804;2022-08-01T13:27:46;23.00;99.90
18839;DHT22;9548;56.920;14.804;2022-08-01T13:30:14;22.30;99.90
18839;DHT22;9548;56.920;14.804;2022-08-01T13:32:43;21.70;99.90
18839;DHT22;9548;56.920;14.804;2022-08-01T13:35:12;21.10;99.90
18839;DHT22;9548;56.920;14.804;2022-08-01T13:37:40;20.90;99.90
18839;DHT22;9548;56.920;14.804;2022-08-01T13:40:10;20.70;99.90
18839;DHT22;9548;56.920;14.804;2022-08-01T13:42:37;20.70;99.90
18839;DHT22;9548;56.920;14.804;2022-08-01T13:45:06;20.90;99.90
18839;DHT22;9548;56.920;14.804;2022-08-01T13:47:36;21.20;99.90
18839;DHT22;9548;56.920;14.804;2022-08-01T13:50:05;21.30;99.90
18839;DHT22;9548;56.920;14.804;2022-08-01T13:52:32;21.60;99.90
18839;DHT22;9548;56.920;14.804;2022-08-01T13:55:00;21.80;99.90
18839;DHT22;9548;56.920;14.804;2022-08-01T13:57:27;22.10;99.90
18839;DHT22;9548;56.920;14.804;2022-08-01T13:59:54;22.50;99.90
18839;DHT22;9548;56.920;14.804;2022-08-01T14:02:25;22.60;99.90
18839;DHT22;9548;56.920;14.804;2022-08-01T14:04:52;22.80;99.90
18839;DHT22;9548;56.920;14.804;2022-08-01T14:07:21;22.80;99.90
18839;DHT22;9548;56.920;14.804;2022-08-01T14:09:48;22.70;99.90
18839;DHT22;9548;56.920;14.804;2022-08-01T14:12:15;22.70;99.90
18839;DHT22;9548;56.920;14.804;2022-08-01T14:14:42;22.70;99.90
18839;DHT22;9548;56.920;14.804;2022-08-01T14:17:09;22.70;99.90
18839;DHT22;9548;56.920;14.804;2022-08-01T14:19:36;22.80;99.90
18839;DHT22;9548;56.920;14.804;2022-08-01T14:22:03;22.90;99.90
18839;DHT22;9548;56.920;14.804;2022-08-01T14:24:31;23.10;99.90
18839;DHT22;9548;56.920;14.804;2022-08-01T14:26:58;23.00;99.90
18839;DHT22;9548;56.920;14.804;2022-08-01T14:29:25;23.00;99.90
18839;DHT22;9548;56.920;14.804;2022-08-01T14:31:52;23.00;99.90
18839;DHT22;9548;56.920;14.804;2022-08-01T14:34:19;23.10;99.90
18839;DHT22;9548;56.920;14.804;2022-08-01T14:36:46;22.70;99.90
18839;DHT22;9548;56.920;14.804;2022-08-01T14:39:13;22.50;99.90
18839;DHT22;9548;56.920;14.804;2022-08-01T14:41:42;22.20;99.90
18839;DHT22;9548;56.920;14.804;2022-08-01T14:44:08;22.00;99.90
18839;DHT22;9548;56.920;14.804;2022-08-01T14:46:35;21.70;99.90
18839;DHT22;9548;56.920;14.804;2022-08-01T14:49:03;21.40;99.90
18839;DHT22;9548;56.920;14.804;2022-08-01T14:51:30;20.90;99.90
18839;DHT22;9548;56.920;14.804;2022-08-01T14:53:58;20.60;99.90
18839;DHT22;9548;56.920;14.804;2022-08-01T14:56:25;20.30;99.90
18839;DHT22;9548;56.920;14.804;2022-08-01T14:58:54;20.00;99.90
18839;DHT22;9548;56.920;14.804;2022-08-01T15:01:21;20.00;99.90
18839;DHT22;9548;56.920;14.804;2022-08-01T15:03:48;19.90;99.90
18839;DHT22;9548;56.920;14.804;2022-08-01T15:06:16;19.80;99.90
18839;DHT22;9548;56.920;14.804;2022-08-01T15:08:43;19.80;99.90
18839;DHT22;9548;56.920;14.804;2022-08-01T15:11:10;19.80;99.90
18839;DHT22;9548;56.920;14.804;2022-08-01T15:13:37;19.70;99.90
18839;DHT22;9548;56.920;14.804;2022-08-01T15:16:06;19.80;99.90
18839;DHT22;9548;56.920;14.804;2022-08-01T15:18:33;19.90;99.90
18839;DHT22;9548;56.920;14.804;2022-08-01T15:21:00;20.00;99.90
18839;DHT22;9548;56.920;14.804;2022-08-01T15:23:27;20.10;99.90
18839;DHT22;9548;56.920;14.804;2022-08-01T15:25:54;20.50;99.90
18839;DHT22;9548;56.920;14.804;2022-08-01T15:28:21;21.30;99.90
18839;DHT22;9548;56.920;14.804;2022-08-01T15:30:48;22.20;99.90
18839;DHT22;9548;56.920;14.804;2022-08-01T15:33:17;23.50;99.90
18839;DHT22;9548;56.920;14.804;2022-08-01T15:35:44;24.80;99.90
18839;DHT22;9548;56.920;14.804;2022-08-01T15:38:11;26.00;99.90
18839;DHT22;9548;56.920;14.804;2022-08-01T15:40:38;26.80;99.90
18839;DHT22;9548;56.920;14.804;2022-08-01T15:43:05;26.80;99.90
18839;DHT22;9548;56.920;14.804;2022-08-01T15:45:32;26.60;99.90